createdAt,value
2024-05-09T00:00:52.170Z,56.51
2024-05-09T00:03:43.864Z,56.67
2024-05-09T00:06:14.606Z,56.75
2024-05-09T00:08:45.177Z,56.80
2024-05-09T00:11:16.611Z,56.89
2024-05-09T00:13:47.198Z,56.91
2024-05-09T00:16:17.829Z,57.01
2024-05-09T00:18:51.391Z,57.09
2024-05-09T00:21:22.032Z,57.15
2024-05-09T00:23:52.651Z,57.18
2024-05-09T00:26:23.222Z,57.21
2024-05-09T00:28:53.989Z,57.22
2024-05-09T00:31:24.577Z,57.30
2024-05-09T00:33:55.564Z,57.33
2024-05-09T00:36:26.250Z,57.25
2024-05-09T00:38:56.718Z,57.42
2024-05-09T00:41:27.231Z,57.46
2024-05-09T00:43:57.808Z,57.52
2024-05-09T00:46:28.368Z,57.51
2024-05-09T00:48:58.955Z,57.39
2024-05-09T00:51:29.556Z,57.53
2024-05-09T00:54:00.062Z,57.54
2024-05-09T00:56:30.549Z,57.64
2024-05-09T00:59:01.120Z,57.73
2024-05-09T01:01:31.742Z,57.73
2024-05-09T01:04:02.453Z,57.70
2024-05-09T01:06:33.134Z,57.81
2024-05-09T01:09:03.643Z,57.85
2024-05-09T01:11:38.949Z,57.85
2024-05-09T01:14:09.641Z,57.98
2024-05-09T01:16:40.160Z,57.92
2024-05-09T01:19:12.914Z,58.07
2024-05-09T01:21:43.601Z,58.13
2024-05-09T01:24:14.150Z,58.20
2024-05-09T01:26:44.738Z,58.17
2024-05-09T01:29:15.354Z,58.26
2024-05-09T01:31:46.264Z,58.33
2024-05-09T01:34:16.977Z,58.29
2024-05-09T01:36:47.543Z,58.29
2024-05-09T01:39:18.056Z,58.31
2024-05-09T01:41:48.498Z,58.27
2024-05-09T01:44:19.062Z,58.41
2024-05-09T01:46:49.708Z,58.44
2024-05-09T01:49:20.379Z,58.52
2024-05-09T01:51:50.958Z,58.44
2024-05-09T01:54:21.478Z,58.60
2024-05-09T01:56:52.007Z,58.58
2024-05-09T01:59:22.656Z,58.56
2024-05-09T02:01:56.954Z,58.70
2024-05-09T02:04:28.697Z,58.67
2024-05-09T02:06:59.492Z,58.69
2024-05-09T02:09:29.962Z,58.77
2024-05-09T02:12:00.660Z,58.73
2024-05-09T02:14:31.556Z,58.80
2024-05-09T02:17:02.046Z,58.74
2024-05-09T02:19:33.096Z,58.88
2024-05-09T02:22:03.972Z,58.77
2024-05-09T02:24:34.394Z,58.91
2024-05-09T02:27:05.207Z,58.89
2024-05-09T02:29:35.895Z,58.88
2024-05-09T02:32:07.144Z,58.91
2024-05-09T02:34:37.835Z,58.88
2024-05-09T02:37:08.313Z,58.83
2024-05-09T02:39:38.859Z,58.88
2024-05-09T02:42:09.422Z,59.00
2024-05-09T02:44:39.958Z,58.84
2024-05-09T02:47:10.469Z,58.93
2024-05-09T02:49:41.067Z,58.93
2024-05-09T02:52:11.787Z,58.85
2024-05-09T02:54:42.266Z,58.85
2024-05-09T02:57:12.770Z,58.76
2024-05-09T02:59:43.145Z,58.79
2024-05-09T03:02:13.973Z,58.92
2024-05-09T03:04:46.052Z,58.89
2024-05-09T03:07:18.997Z,58.88
2024-05-09T03:09:50.635Z,58.73
2024-05-09T03:12:21.217Z,58.73
2024-05-09T03:14:52.516Z,58.67
2024-05-09T03:17:24.037Z,58.68
2024-05-09T03:19:54.888Z,58.52
2024-05-09T03:22:25.659Z,58.56
2024-05-09T03:24:56.142Z,58.47
2024-05-09T03:27:26.717Z,58.46
2024-05-09T03:29:57.157Z,58.44
2024-05-09T03:32:27.940Z,58.26
2024-05-09T03:34:58.808Z,58.32
2024-05-09T03:37:29.339Z,58.30
2024-05-09T03:39:59.704Z,58.21
2024-05-09T03:42:30.213Z,58.24
2024-05-09T03:45:00.739Z,58.18
2024-05-09T03:47:35.094Z,57.94
2024-05-09T03:50:14.938Z,57.98
2024-05-09T03:52:48.985Z,57.95
2024-05-09T03:55:19.740Z,57.95
2024-05-09T03:57:50.103Z,57.91
2024-05-09T04:00:30.445Z,57.87
2024-05-09T04:03:09.066Z,57.79
2024-05-09T04:05:43.751Z,57.67
2024-05-09T04:08:15.695Z,57.73
2024-05-09T04:10:46.592Z,57.73
2024-05-09T04:13:17.291Z,57.80
2024-05-09T04:15:47.671Z,57.78
2024-05-09T04:18:19.328Z,57.75
2024-05-09T04:20:49.828Z,57.72
2024-05-09T04:23:20.479Z,57.84
2024-05-09T04:25:50.959Z,57.74
2024-05-09T04:28:21.508Z,57.57
2024-05-09T04:30:52.318Z,57.58
2024-05-09T04:33:23.032Z,57.52
2024-05-09T04:35:53.743Z,57.56
2024-05-09T04:38:24.297Z,57.30
2024-05-09T04:40:54.971Z,57.17
2024-05-09T04:43:25.503Z,57.26
2024-05-09T04:45:55.937Z,57.18
2024-05-09T04:48:26.551Z,57.09
2024-05-09T04:50:57.304Z,57.00
2024-05-09T04:53:27.798Z,56.97
2024-05-09T04:55:58.485Z,57.02
2024-05-09T04:58:28.927Z,56.95
2024-05-09T05:00:59.463Z,56.76
2024-05-09T05:03:30.148Z,56.74
2024-05-09T05:06:00.865Z,56.73
2024-05-09T05:08:31.834Z,56.67
2024-05-09T05:11:02.607Z,56.55
2024-05-09T05:13:33.671Z,56.64
2024-05-09T05:16:04.850Z,56.37
2024-05-09T05:18:35.581Z,56.39
2024-05-09T05:21:06.759Z,56.41
2024-05-09T05:23:37.499Z,56.23
2024-05-09T05:26:08.287Z,56.16
2024-05-09T05:28:38.885Z,55.91
2024-05-09T05:31:09.521Z,55.91
2024-05-09T05:33:40.104Z,55.75
2024-05-09T05:36:10.788Z,55.75
2024-05-09T05:38:41.550Z,55.63
2024-05-09T05:41:12.548Z,55.60
2024-05-09T05:43:43.271Z,55.60
2024-05-09T05:46:13.766Z,55.57
2024-05-09T05:48:44.394Z,55.55
2024-05-09T05:51:15.174Z,55.57
2024-05-09T05:53:46.392Z,55.62
2024-05-09T05:56:17.068Z,55.62
2024-05-09T05:58:47.614Z,55.64
2024-05-09T06:01:18.194Z,55.65
2024-05-09T06:03:49.257Z,55.71
2024-05-09T06:06:20.049Z,55.54
2024-05-09T06:08:50.741Z,55.74
2024-05-09T06:11:21.427Z,55.52
2024-05-09T06:13:52.194Z,55.38
2024-05-09T06:16:22.763Z,55.35
2024-05-09T06:18:53.418Z,55.31
2024-05-09T06:21:24.109Z,55.28
2024-05-09T06:23:54.691Z,55.41
2024-05-09T06:26:25.307Z,55.31
2024-05-09T06:28:56.044Z,55.19
2024-05-09T06:31:26.592Z,55.20
2024-05-09T06:33:57.205Z,55.29
2024-05-09T06:36:28.106Z,55.40
2024-05-09T06:38:58.584Z,55.24
2024-05-09T06:41:29.256Z,55.22
2024-05-09T06:43:59.905Z,55.22
2024-05-09T06:46:30.412Z,55.13
2024-05-09T06:49:06.683Z,55.04
2024-05-09T06:51:38.796Z,55.12
2024-05-09T06:54:09.663Z,54.86
2024-05-09T06:56:40.295Z,54.80
2024-05-09T06:59:11.004Z,54.60
2024-05-09T07:01:41.727Z,54.72
2024-05-09T07:04:12.596Z,54.72
2024-05-09T07:06:43.404Z,54.76
2024-05-09T07:09:13.888Z,54.72
2024-05-09T07:11:44.464Z,54.82
2024-05-09T07:14:15.060Z,54.73
2024-05-09T07:16:45.656Z,54.76
2024-05-09T07:19:16.344Z,54.69
2024-05-09T07:21:46.956Z,54.72
2024-05-09T07:24:17.481Z,54.51
2024-05-09T07:26:47.981Z,54.57
2024-05-09T07:29:18.560Z,54.57
2024-05-09T07:31:49.078Z,54.71
2024-05-09T07:34:19.910Z,54.67
2024-05-09T07:36:50.877Z,54.61
2024-05-09T07:39:22.792Z,54.65
2024-05-09T07:41:53.495Z,54.59
2024-05-09T07:44:24.099Z,54.70
2024-05-09T07:48:13.783Z,54.90
2024-05-09T07:51:32.519Z,54.96
2024-05-09T07:53:33.252Z,54.96
2024-05-09T07:55:26.295Z,55.04
2024-05-09T07:57:57.187Z,54.97
2024-05-09T08:00:31.461Z,55.05
2024-05-09T08:03:02.778Z,54.93
2024-05-09T08:05:33.655Z,54.86
2024-05-09T08:08:04.613Z,54.83
2024-05-09T08:10:36.127Z,54.60
2024-05-09T08:13:06.964Z,54.70
2024-05-09T08:15:37.958Z,54.54
2024-05-09T08:18:10.344Z,54.43
2024-05-09T08:20:41.558Z,54.39
2024-05-09T08:23:12.146Z,54.36
2024-05-09T08:25:42.754Z,54.09
2024-05-09T08:28:13.426Z,54.10
2024-05-09T08:30:44.570Z,54.07
2024-05-09T08:33:15.539Z,53.94
2024-05-09T08:35:46.462Z,53.91
2024-05-09T08:38:17.107Z,54.01
2024-05-09T08:40:47.765Z,53.85
2024-05-09T08:43:18.691Z,53.82
2024-05-09T08:45:50.021Z,53.88
2024-05-09T08:48:21.136Z,53.92
2024-05-09T08:50:53.995Z,53.92
2024-05-09T08:53:24.643Z,53.75
2024-05-09T08:55:55.253Z,53.60
2024-05-09T08:58:25.815Z,53.60
2024-05-09T09:00:56.534Z,53.45
2024-05-09T09:03:28.233Z,53.36
2024-05-09T09:06:01.293Z,53.37
2024-05-09T09:08:31.944Z,53.29
2024-05-09T09:11:02.529Z,53.26
2024-05-09T09:13:33.104Z,53.19
2024-05-09T09:16:03.890Z,53.21
2024-05-09T09:18:34.823Z,53.30
2024-05-09T09:21:05.853Z,53.37
2024-05-09T09:23:36.388Z,53.38
2024-05-09T09:26:07.019Z,53.34
2024-05-09T09:28:40.531Z,53.36
2024-05-09T09:31:11.160Z,53.52
2024-05-09T09:33:44.387Z,53.73
2024-05-09T09:36:15.099Z,53.49
2024-05-09T09:38:45.619Z,53.12
2024-05-09T09:41:22.176Z,53.24
2024-05-09T09:43:52.826Z,53.26
2024-05-09T09:46:23.650Z,53.03
2024-05-09T09:48:54.550Z,53.24
2024-05-09T09:51:25.131Z,53.25
2024-05-09T09:53:55.654Z,53.25
2024-05-09T09:56:26.204Z,53.27
2024-05-09T09:58:56.800Z,53.07
2024-05-09T10:01:27.423Z,53.01
2024-05-09T10:03:58.280Z,52.95
2024-05-09T10:06:30.400Z,53.12
2024-05-09T10:09:00.895Z,53.00
2024-05-09T10:11:34.907Z,52.97
2024-05-09T10:14:09.996Z,52.92
2024-05-09T10:16:45.589Z,52.92
2024-05-09T10:19:25.661Z,52.94
2024-05-09T10:22:02.963Z,52.85
2024-05-09T10:24:47.204Z,52.76
2024-05-09T10:27:17.874Z,52.74
2024-05-09T10:29:54.792Z,52.89
2024-05-09T10:32:25.446Z,52.89
2024-05-09T10:35:02.450Z,52.94
2024-05-09T10:37:33.190Z,52.96
2024-05-09T10:40:07.222Z,53.10
2024-05-09T10:42:42.799Z,53.07
2024-05-09T10:45:13.763Z,53.01
2024-05-09T10:47:44.484Z,52.82
2024-05-09T10:50:22.323Z,52.76
2024-05-09T10:52:58.939Z,52.83
2024-05-09T10:55:29.517Z,52.88
2024-05-09T10:58:00.244Z,53.17
2024-05-09T11:00:36.107Z,53.23
2024-05-09T11:03:07.754Z,53.11
2024-05-09T11:05:38.276Z,53.10
2024-05-09T11:08:09.364Z,53.10
2024-05-09T11:10:40.166Z,53.06
2024-05-09T11:13:11.025Z,53.12
2024-05-09T11:15:41.793Z,53.13
2024-05-09T11:18:24.652Z,53.12
2024-05-09T11:20:56.617Z,53.00
2024-05-09T11:23:30.178Z,53.02
2024-05-09T11:26:00.968Z,53.03
2024-05-09T11:28:31.755Z,52.84
2024-05-09T11:31:09.958Z,52.97
2024-05-09T11:33:42.435Z,52.71
2024-05-09T11:36:13.054Z,52.66
2024-05-09T11:38:43.787Z,52.78
2024-05-09T11:41:19.204Z,52.69
2024-05-09T11:43:49.850Z,52.25
2024-05-09T11:46:20.374Z,52.21
2024-05-09T11:48:51.204Z,52.26
2024-05-09T11:51:22.047Z,52.21
2024-05-09T11:53:52.599Z,52.29
2024-05-09T11:56:23.321Z,52.36
2024-05-09T11:58:53.982Z,52.18
2024-05-09T12:01:27.589Z,51.99
2024-05-09T12:03:58.898Z,52.02
2024-05-09T12:06:30.543Z,51.67
2024-05-09T12:09:01.048Z,51.60
2024-05-09T12:11:31.979Z,51.59
2024-05-09T12:14:06.515Z,51.39
2024-05-09T12:16:37.154Z,51.31
2024-05-09T12:19:07.946Z,51.19
2024-05-09T12:21:38.618Z,50.97
2024-05-09T12:24:09.249Z,51.06
2024-05-09T12:26:39.844Z,50.80
2024-05-09T12:29:10.530Z,50.91
2024-05-09T12:31:41.015Z,51.01
2024-05-09T12:34:11.672Z,50.89
2024-05-09T12:36:42.287Z,50.98
2024-05-09T12:39:12.859Z,50.94
2024-05-09T12:41:43.272Z,51.04
2024-05-09T12:44:13.756Z,51.06
2024-05-09T12:46:44.372Z,51.00
2024-05-09T12:49:17.237Z,51.04
2024-05-09T12:51:49.421Z,50.88
2024-05-09T12:54:20.020Z,50.85
2024-05-09T12:56:50.707Z,50.87
2024-05-09T12:59:21.270Z,50.93
2024-05-09T13:01:51.878Z,50.88
2024-05-09T13:04:22.843Z,50.88
2024-05-09T13:06:53.308Z,50.75
2024-05-09T13:09:24.142Z,50.75
2024-05-09T13:11:54.719Z,50.70
2024-05-09T13:14:25.309Z,50.67
2024-05-09T13:16:55.884Z,50.62
2024-05-09T13:19:26.432Z,50.53
2024-05-09T13:21:56.951Z,50.71
2024-05-09T13:24:27.465Z,51.13
2024-05-09T13:26:58.100Z,50.67
2024-05-09T13:29:28.639Z,50.54
2024-05-09T13:31:59.166Z,50.54
2024-05-09T13:34:29.689Z,50.68
2024-05-09T13:37:00.235Z,50.58
2024-05-09T13:39:30.959Z,50.34
2024-05-09T13:42:01.523Z,50.35
2024-05-09T13:44:32.070Z,50.18
2024-05-09T13:47:02.533Z,50.18
2024-05-09T13:49:33.116Z,50.16
2024-05-09T13:52:03.693Z,50.26
2024-05-09T13:54:34.398Z,50.49
2024-05-09T13:57:05.035Z,50.50
2024-05-09T13:59:35.570Z,50.59
2024-05-09T14:02:06.548Z,50.75
2024-05-09T14:04:37.533Z,50.74
2024-05-09T14:07:10.151Z,50.67
2024-05-09T14:09:41.051Z,50.94
2024-05-09T14:12:11.721Z,51.36
2024-05-09T14:14:42.237Z,51.53
2024-05-09T14:17:12.813Z,51.48
2024-05-09T14:19:43.294Z,51.41
2024-05-09T14:22:13.998Z,51.47
2024-05-09T14:24:44.549Z,51.40
2024-05-09T14:27:15.099Z,51.38
2024-05-09T14:29:45.580Z,51.60
2024-05-09T14:32:16.088Z,51.58
2024-05-09T14:34:47.599Z,51.53
2024-05-09T14:37:18.389Z,51.51
2024-05-09T14:39:48.998Z,51.44
2024-05-09T14:42:20.415Z,51.45
2024-05-09T14:44:50.950Z,51.53
2024-05-09T14:47:21.477Z,51.68
2024-05-09T14:49:52.165Z,51.60
2024-05-09T14:52:22.604Z,51.20
2024-05-09T14:55:00.003Z,51.38
2024-05-09T14:57:31.622Z,51.40
2024-05-09T15:00:02.813Z,51.31
2024-05-09T15:02:35.737Z,51.36
2024-05-09T15:05:07.312Z,51.40
2024-05-09T15:07:38.166Z,51.36
2024-05-09T15:10:16.484Z,51.31
2024-05-09T15:12:51.558Z,51.43
2024-05-09T15:15:22.040Z,51.17
2024-05-09T15:17:52.774Z,51.08
2024-05-09T15:20:31.516Z,51.22
2024-05-09T15:23:07.303Z,51.30
2024-05-09T15:25:38.198Z,51.31
2024-05-09T15:28:09.362Z,51.32
2024-05-09T15:30:42.036Z,51.28
2024-05-09T15:33:14.543Z,51.63
2024-05-09T15:35:46.615Z,51.83
2024-05-09T15:38:17.896Z,51.72
2024-05-09T15:40:49.089Z,51.86
2024-05-09T15:43:19.710Z,51.86
2024-05-09T15:45:50.430Z,51.90
2024-05-09T15:48:21.121Z,51.96
2024-05-09T15:50:51.734Z,51.98
2024-05-09T15:53:22.674Z,51.93
2024-05-09T15:55:53.252Z,51.89
2024-05-09T15:58:23.939Z,51.81
2024-05-09T16:00:54.738Z,51.74
2024-05-09T16:03:25.667Z,51.91
2024-05-09T16:05:58.443Z,52.16
2024-05-09T16:08:29.054Z,52.51
2024-05-09T16:10:59.787Z,52.59
2024-05-09T16:13:30.513Z,52.74
2024-05-09T16:16:01.253Z,52.77
2024-05-09T16:18:31.889Z,52.72
2024-05-09T16:21:02.496Z,52.79
2024-05-09T16:23:33.119Z,52.89
2024-05-09T16:26:03.663Z,52.71
2024-05-09T16:28:34.213Z,52.82
2024-05-09T16:31:04.970Z,52.91
2024-05-09T16:33:35.657Z,52.76
2024-05-09T16:36:07.104Z,52.97
2024-05-09T16:38:39.370Z,53.02
2024-05-09T16:41:09.869Z,53.03
2024-05-09T16:43:40.381Z,53.15
2024-05-09T16:46:11.015Z,53.00
2024-05-09T16:48:45.275Z,53.07
2024-05-09T16:51:15.982Z,53.03
2024-05-09T16:53:48.297Z,52.95
2024-05-09T16:56:18.900Z,53.11
2024-05-09T16:58:51.755Z,53.27
2024-05-09T17:01:22.548Z,53.27
2024-05-09T17:03:53.349Z,53.39
2024-05-09T17:06:24.016Z,53.53
2024-05-09T17:08:55.620Z,53.57
2024-05-09T17:11:29.811Z,53.63
2024-05-09T17:14:00.337Z,53.89
2024-05-09T17:16:31.448Z,53.83
2024-05-09T17:19:02.118Z,53.73
2024-05-09T17:21:32.795Z,53.85
2024-05-09T17:24:03.326Z,53.98
2024-05-09T17:26:33.864Z,53.95
2024-05-09T17:29:04.721Z,53.87
2024-05-09T17:31:35.832Z,54.03
2024-05-09T17:34:06.746Z,53.99
2024-05-09T17:36:37.814Z,54.21
2024-05-09T17:39:08.341Z,54.34
2024-05-09T17:41:39.011Z,54.49
2024-05-09T17:44:09.605Z,54.60
2024-05-09T17:46:40.183Z,54.59
2024-05-09T17:49:10.913Z,54.69
2024-05-09T17:51:51.223Z,54.62
2024-05-09T17:54:21.838Z,54.66
2024-05-09T17:56:54.301Z,54.53
2024-05-09T17:59:24.763Z,54.64
2024-05-09T18:01:55.411Z,54.74
2024-05-09T18:04:26.700Z,54.73
2024-05-09T18:06:58.180Z,54.84
2024-05-09T18:09:28.949Z,54.96
2024-05-09T18:12:00.155Z,55.13
2024-05-09T18:14:30.757Z,55.21
2024-05-09T18:17:01.309Z,55.40
2024-05-09T18:19:32.190Z,55.52
2024-05-09T18:22:02.989Z,55.56
2024-05-09T18:24:33.598Z,55.41
2024-05-09T18:27:05.380Z,55.46
2024-05-09T18:29:37.264Z,55.52
2024-05-09T18:32:08.499Z,55.48
2024-05-09T18:34:39.113Z,55.40
2024-05-09T18:37:09.991Z,55.35
2024-05-09T18:39:40.562Z,55.38
2024-05-09T18:42:11.379Z,55.30
2024-05-09T18:44:42.020Z,55.25
2024-05-09T18:47:12.983Z,55.33
2024-05-09T18:49:44.385Z,55.32
2024-05-09T18:52:15.561Z,55.35
2024-05-09T18:54:46.231Z,55.45
2024-05-09T18:57:17.250Z,55.43
2024-05-09T18:59:47.701Z,55.51
2024-05-09T19:02:18.583Z,55.55
2024-05-09T19:04:49.626Z,55.38
2024-05-09T19:07:20.454Z,55.44
2024-05-09T19:09:51.242Z,55.42
2024-05-09T19:12:21.825Z,55.39
2024-05-09T19:14:52.164Z,55.49
2024-05-09T19:17:22.916Z,55.63
2024-05-09T19:19:53.721Z,55.63
2024-05-09T19:22:24.519Z,55.63
2024-05-09T19:24:55.230Z,55.76
2024-05-09T19:27:25.720Z,55.73
2024-05-09T19:29:57.841Z,55.75
2024-05-09T19:32:28.703Z,55.68
2024-05-09T19:34:59.739Z,55.60
2024-05-09T19:37:31.650Z,55.69
2024-05-09T19:40:02.268Z,55.69
2024-05-09T19:42:33.353Z,55.79
2024-05-09T19:45:04.307Z,55.88
2024-05-09T19:47:34.873Z,55.79
2024-05-09T19:50:10.756Z,55.83
2024-05-09T19:52:48.168Z,55.74
2024-05-09T19:55:18.939Z,55.82
2024-05-09T19:57:49.573Z,55.84
2024-05-09T20:00:26.212Z,55.88
2024-05-09T20:03:03.131Z,55.91
2024-05-09T20:05:34.300Z,55.92
2024-05-09T20:08:05.391Z,55.92
2024-05-09T20:10:36.971Z,55.88
2024-05-09T20:13:09.005Z,56.00
2024-05-09T20:15:40.215Z,55.92
2024-05-09T20:18:11.210Z,55.93
2024-05-09T20:20:44.077Z,56.07
2024-05-09T20:23:16.153Z,56.15
2024-05-09T20:25:46.650Z,56.11
2024-05-09T20:28:17.498Z,56.14
2024-05-09T20:30:48.262Z,56.12
2024-05-09T20:33:18.908Z,56.16
2024-05-09T20:35:49.395Z,56.19
2024-05-09T20:38:20.148Z,56.27
2024-05-09T20:40:50.795Z,56.20
2024-05-09T20:43:21.714Z,56.21
2024-05-09T20:45:52.343Z,56.21
2024-05-09T20:48:23.876Z,56.12
2024-05-09T20:50:54.665Z,56.07
2024-05-09T20:53:25.367Z,56.05
2024-05-09T20:55:55.816Z,56.00
2024-05-09T20:58:26.373Z,56.03
2024-05-09T21:00:57.156Z,55.99
2024-05-09T21:03:27.786Z,56.13
2024-05-09T21:05:58.560Z,56.02
2024-05-09T21:08:29.080Z,55.91
2024-05-09T21:11:00.086Z,55.92
2024-05-09T21:13:30.740Z,55.92
2024-05-09T21:16:01.513Z,55.82
2024-05-09T21:18:32.289Z,55.83
2024-05-09T21:21:03.350Z,55.82
2024-05-09T21:23:34.037Z,55.75
2024-05-09T21:26:04.702Z,55.73
2024-05-09T21:28:35.337Z,55.60
2024-05-09T21:31:06.059Z,55.34
2024-05-09T21:33:37.305Z,55.09
2024-05-09T21:36:09.924Z,55.04
2024-05-09T21:38:42.351Z,55.02
2024-05-09T21:41:12.966Z,54.84
2024-05-09T21:43:43.553Z,54.67
2024-05-09T21:46:14.025Z,54.61
2024-05-09T21:48:44.875Z,54.49
2024-05-09T21:51:15.905Z,54.37
2024-05-09T21:53:46.477Z,54.27
2024-05-09T21:56:17.263Z,54.28
2024-05-09T21:58:47.834Z,54.34
2024-05-09T22:01:18.620Z,54.22
2024-05-09T22:03:49.402Z,54.09
2024-05-09T22:06:20.278Z,53.98
2024-05-09T22:08:50.856Z,54.03
2024-05-09T22:11:21.523Z,54.13
2024-05-09T22:13:52.583Z,54.14
2024-05-09T22:16:23.302Z,54.16
2024-05-09T22:18:54.054Z,54.03
2024-05-09T22:21:24.772Z,54.19
2024-05-09T22:23:55.305Z,54.26
2024-05-09T22:26:25.880Z,54.16
2024-05-09T22:28:56.443Z,53.88
2024-05-09T22:31:27.057Z,53.81
2024-05-09T22:33:57.934Z,53.76
2024-05-09T22:36:28.667Z,53.62
2024-05-09T22:39:00.240Z,53.53
2024-05-09T22:41:30.832Z,53.39
2024-05-09T22:44:02.383Z,53.33
2024-05-09T22:46:32.922Z,53.27
2024-05-09T22:49:04.037Z,53.29
2024-05-09T22:51:35.154Z,53.05
2024-05-09T22:54:06.445Z,52.92
2024-05-09T22:56:37.054Z,52.71
2024-05-09T22:59:07.942Z,52.60
2024-05-09T23:01:38.611Z,52.53
2024-05-09T23:04:09.436Z,52.30
2024-05-09T23:06:42.752Z,52.26
2024-05-09T23:09:13.398Z,52.10
2024-05-09T23:11:45.723Z,51.97
2024-05-09T23:14:16.348Z,51.84
2024-05-09T23:16:46.938Z,51.51
2024-05-09T23:19:17.596Z,51.16
2024-05-09T23:21:48.306Z,50.95
2024-05-09T23:24:18.878Z,50.92
2024-05-09T23:26:49.416Z,50.77
2024-05-09T23:29:20.058Z,50.61
2024-05-09T23:31:50.549Z,50.57
2024-05-09T23:34:21.507Z,50.18
2024-05-09T23:36:52.341Z,49.85
2024-05-09T23:39:22.914Z,49.97
2024-05-09T23:41:53.538Z,49.80
2024-05-09T23:44:24.116Z,49.76
2024-05-09T23:46:54.628Z,49.54
2024-05-09T23:49:25.483Z,49.59
2024-05-09T23:51:56.048Z,49.39
2024-05-09T23:54:26.605Z,49.33
2024-05-09T23:56:57.270Z,49.24
2024-05-09T23:59:27.911Z,49.22
